PWSweather.com
Personal Weather Stations
Station Observations
OINOFYTA
Oinofyta Greece, OinofytaGR 320 11

Oinofyta GreeceOinofytaGR 320 11

Lat: 38.3080648, Lon: 23.6391172

Elevation: 354

Station Type: ProWeatherStation 1080

http://oinofytaweather.gr/

Latest ConditionsUpdated 3:40:00 PM GMT+02:02 Sunday, Jun 16, 2019
Currently Today's Max Today's Min Today's Average
Temperature 90.7°F32.6°C 91.8°F33.2°C 73.4°F23.0°C 81.7°F27.6°C
Dew Point 49.0°F9.4°C 67.5°F19.7°C 47.9°F8.8°C 62.2°F16.8°C
Winds 3.8 mph ENE6.1 kmh ENE 8.8 mph -14.2 kmh - - 4.9 mph 7.9 kmh
Wind Gusts 10.7 mph17.2 kmh 19.0 mph30.6 kmh - -
Humidity 24% 76% 23% 54%
Pressure 29.89 in1012.2 mb 29.96 in1014.6 mb 29.89 in1012.2 mb -
Hour Temp Dew Point Humidity Winds Wind Gusts Pressure Precip Precip Rate Daily Precip Total
03:40 PM 90.7°F32.6°C 49.0°F9.4°C 24% 3.8 mph ENE6.1 kmh ENE 10.7 mph17.2 kmh 29.89 in1012.2 mb 0.00 in0.0 mm 0.00 in0.0 mm 0.00 in0.0 mm
03:35 PM 91.8°F33.2°C 48.8°F9.3°C 23% 4.4 mph NE7.1 kmh NE 10.7 mph17.2 kmh 29.89 in1012.2 mb 0.00 in0.0 mm 0.00 in0.0 mm 0.00 in0.0 mm
03:30 PM 91.2°F32.9°C 48.3°F9.1°C 23% 3.8 mph NNE6.1 kmh NNE 9.8 mph15.8 kmh 29.89 in1012.2 mb 0.00 in0.0 mm 0.00 in0.0 mm 0.00 in0.0 mm
03:25 PM 91.4°F33.0°C 48.5°F9.2°C 23% 4.2 mph NNW6.8 kmh NNW 10.7 mph17.2 kmh 29.89 in1012.2 mb 0.00 in0.0 mm 0.00 in0.0 mm 0.00 in0.0 mm
03:20 PM 91.0°F32.8°C 49.3°F9.6°C 24% 4.9 mph NW7.9 kmh NW 12.1 mph19.5 kmh 29.89 in1012.2 mb 0.00 in0.0 mm 0.00 in0.0 mm 0.00 in0.0 mm
03:15 PM 90.7°F32.6°C 47.9°F8.8°C 23% 5.2 mph NNW8.4 kmh NNW 12.1 mph19.5 kmh 29.90 in1012.5 mb 0.00 in0.0 mm 0.00 in0.0 mm 0.00 in0.0 mm
03:10 PM 91.2°F32.9°C 48.3°F9.1°C 23% 5.5 mph NE8.9 kmh NE 12.1 mph19.5 kmh 29.90 in1012.5 mb 0.00 in0.0 mm 0.00 in0.0 mm 0.00 in0.0 mm
03:05 PM 91.0°F32.8°C 49.3°F9.6°C 24% 5.5 mph NE8.9 kmh NE 13.6 mph21.9 kmh 29.90 in1012.5 mb 0.00 in0.0 mm 0.00 in0.0 mm 0.00 in0.0 mm
03:00 PM 91.0°F32.8°C 49.3°F9.6°C 24% 5.2 mph N8.4 kmh N 13.6 mph21.9 kmh 29.90 in1012.5 mb 0.00 in0.0 mm 0.00 in0.0 mm 0.00 in0.0 mm
02:55 PM 90.9°F32.7°C 51.3°F10.7°C 26% 5.2 mph N8.4 kmh N 15.2 mph24.5 kmh 29.91 in1012.9 mb 0.00 in0.0 mm 0.00 in0.0 mm 0.00 in0.0 mm
02:50 PM 90.3°F32.4°C 52.8°F11.6°C 28% 4.4 mph NNE7.1 kmh NNE 15.2 mph24.5 kmh 29.90 in1012.5 mb 0.00 in0.0 mm 0.00 in0.0 mm 0.00 in0.0 mm
02:45 PM 90.1°F32.3°C 53.7°F12.1°C 29% 5.2 mph N8.4 kmh N 15.2 mph24.5 kmh 29.91 in1012.9 mb 0.00 in0.0 mm 0.00 in0.0 mm 0.00 in0.0 mm
02:40 PM 90.5°F32.5°C 53.0°F11.7°C 28% 5.1 mph N8.2 kmh N 12.1 mph19.5 kmh 29.91 in1012.9 mb 0.00 in0.0 mm 0.00 in0.0 mm 0.00 in0.0 mm
02:35 PM 90.3°F32.4°C 53.8°F12.1°C 29% 3.8 mph NNE6.1 kmh NNE 9.8 mph15.8 kmh 29.91 in1012.9 mb 0.00 in0.0 mm 0.00 in0.0 mm 0.00 in0.0 mm
02:30 PM 90.5°F32.5°C 53.0°F11.7°C 28% 3.6 mph NNE5.8 kmh NNE 9.8 mph15.8 kmh 29.91 in1012.9 mb 0.00 in0.0 mm 0.00 in0.0 mm 0.00 in0.0 mm
02:25 PM 89.8°F32.1°C 55.2°F12.9°C 31% 5.0 mph NE8.0 kmh NE 18.3 mph29.5 kmh 29.92 in1013.2 mb 0.00 in0.0 mm 0.00 in0.0 mm 0.00 in0.0 mm
02:20 PM 90.5°F32.5°C 54.9°F12.7°C 30% 6.2 mph N10.0 kmh N 18.3 mph29.5 kmh 29.92 in1013.2 mb 0.00 in0.0 mm 0.00 in0.0 mm 0.00 in0.0 mm
02:15 PM 90.1°F32.3°C 56.4°F13.6°C 32% 4.4 mph N7.1 kmh N 18.3 mph29.5 kmh 29.92 in1013.2 mb 0.00 in0.0 mm 0.00 in0.0 mm 0.00 in0.0 mm
02:10 PM 89.6°F32.0°C 55.9°F13.3°C 32% 3.8 mph NNE6.1 kmh NNE 9.8 mph15.8 kmh 29.92 in1013.2 mb 0.00 in0.0 mm 0.00 in0.0 mm 0.00 in0.0 mm
02:05 PM 89.8°F32.1°C 55.2°F12.9°C 31% 5.1 mph NE8.2 kmh NE 11.4 mph18.3 kmh 29.92 in1013.2 mb 0.00 in0.0 mm 0.00 in0.0 mm 0.00 in0.0 mm
02:00 PM 90.1°F32.3°C 54.6°F12.6°C 30% 5.8 mph N9.3 kmh N 11.4 mph18.3 kmh 29.93 in1013.5 mb 0.00 in0.0 mm 0.00 in0.0 mm 0.00 in0.0 mm
01:55 PM 90.9°F32.7°C 55.2°F12.9°C 30% 5.6 mph NNW9.0 kmh NNW 11.4 mph18.3 kmh 29.93 in1013.5 mb 0.00 in0.0 mm 0.00 in0.0 mm 0.00 in0.0 mm
01:50 PM 90.1°F32.3°C 56.4°F13.6°C 32% 4.7 mph N7.6 kmh N 11.4 mph18.3 kmh 29.93 in1013.5 mb 0.00 in0.0 mm 0.00 in0.0 mm 0.00 in0.0 mm
01:45 PM 90.0°F32.2°C 57.1°F13.9°C 33% 4.6 mph N7.4 kmh N 11.4 mph18.3 kmh 29.93 in1013.5 mb 0.00 in0.0 mm 0.00 in0.0 mm 0.00 in0.0 mm
01:40 PM 89.8°F32.1°C 56.9°F13.8°C 33% 5.1 mph N8.2 kmh N 11.4 mph18.3 kmh 29.93 in1013.5 mb 0.00 in0.0 mm 0.00 in0.0 mm 0.00 in0.0 mm
01:35 PM 89.8°F32.1°C 56.9°F13.8°C 33% 4.8 mph N7.7 kmh N 10.7 mph17.2 kmh 29.94 in1013.9 mb 0.00 in0.0 mm 0.00 in0.0 mm 0.00 in0.0 mm
01:30 PM 89.1°F31.7°C 57.9°F14.4°C 35% 5.5 mph N8.9 kmh N 12.1 mph19.5 kmh 29.94 in1013.9 mb 0.00 in0.0 mm 0.00 in0.0 mm 0.00 in0.0 mm
01:25 PM 89.2°F31.8°C 56.4°F13.6°C 33% 6.5 mph N10.5 kmh N 16.8 mph27.0 kmh 29.94 in1013.9 mb 0.00 in0.0 mm 0.00 in0.0 mm 0.00 in0.0 mm
01:20 PM 89.6°F32.0°C 57.6°F14.2°C 34% 6.3 mph NW10.1 kmh NW 16.8 mph27.0 kmh 29.95 in1014.2 mb 0.00 in0.0 mm 0.00 in0.0 mm 0.00 in0.0 mm
01:15 PM 89.4°F31.9°C 58.2°F14.6°C 35% 4.6 mph N7.4 kmh N 11.4 mph18.3 kmh 29.94 in1013.9 mb 0.00 in0.0 mm 0.00 in0.0 mm 0.00 in0.0 mm
01:10 PM 88.9°F31.6°C 59.3°F15.2°C 37% 4.3 mph N6.9 kmh N 14.5 mph23.3 kmh 29.94 in1013.9 mb 0.00 in0.0 mm 0.00 in0.0 mm 0.00 in0.0 mm
01:05 PM 88.3°F31.3°C 59.6°F15.3°C 38% 5.0 mph NNE8.0 kmh NNE 14.5 mph23.3 kmh 29.95 in1014.2 mb 0.00 in0.0 mm 0.00 in0.0 mm 0.00 in0.0 mm
01:00 PM 88.2°F31.2°C 59.4°F15.2°C 38% 5.6 mph N9.0 kmh N 12.1 mph19.5 kmh 29.95 in1014.2 mb 0.00 in0.0 mm 0.00 in0.0 mm 0.00 in0.0 mm
12:55 PM 88.9°F31.6°C 60.0°F15.6°C 38% 6.1 mph NNW9.8 kmh NNW 13.6 mph21.9 kmh 29.95 in1014.2 mb 0.00 in0.0 mm 0.00 in0.0 mm 0.00 in0.0 mm
12:50 PM 88.7°F31.5°C 60.6°F15.9°C 39% 6.2 mph N10.0 kmh N 13.6 mph21.9 kmh 29.95 in1014.2 mb 0.00 in0.0 mm 0.00 in0.0 mm 0.00 in0.0 mm
12:45 PM 88.7°F31.5°C 59.9°F15.5°C 38% 5.4 mph NNE8.7 kmh NNE 13.6 mph21.9 kmh 29.96 in1014.6 mb 0.00 in0.0 mm 0.00 in0.0 mm 0.00 in0.0 mm
12:40 PM 88.3°F31.3°C 60.3°F15.7°C 39% 5.3 mph N8.5 kmh N 15.2 mph24.5 kmh 29.96 in1014.6 mb 0.00 in0.0 mm 0.00 in0.0 mm 0.00 in0.0 mm
12:35 PM 88.2°F31.2°C 61.5°F16.4°C 41% 5.8 mph NNE9.3 kmh NNE 15.2 mph24.5 kmh 29.96 in1014.6 mb 0.00 in0.0 mm 0.00 in0.0 mm 0.00 in0.0 mm
12:30 PM 87.6°F30.9°C 60.4°F15.8°C 40% 6.2 mph NNE10.0 kmh NNE 15.2 mph24.5 kmh 29.95 in1014.2 mb 0.00 in0.0 mm 0.00 in0.0 mm 0.00 in0.0 mm
12:25 PM 88.2°F31.2°C 60.9°F16.1°C 40% 7.6 mph N12.2 kmh N 16.8 mph27.0 kmh 29.96 in1014.6 mb 0.00 in0.0 mm 0.00 in0.0 mm 0.00 in0.0 mm
12:20 PM 88.2°F31.2°C 60.1°F15.6°C 39% 7.6 mph NNE12.2 kmh NNE 16.8 mph27.0 kmh 29.96 in1014.6 mb 0.00 in0.0 mm 0.00 in0.0 mm 0.00 in0.0 mm
12:15 PM 88.3°F31.3°C 60.3°F15.7°C 39% 6.6 mph N10.6 kmh N 14.5 mph23.3 kmh 29.96 in1014.6 mb 0.00 in0.0 mm 0.00 in0.0 mm 0.00 in0.0 mm
12:10 PM 88.5°F31.4°C 61.2°F16.2°C 40% 6.2 mph NNW10.0 kmh NNW 13.0 mph20.9 kmh 29.96 in1014.6 mb 0.00 in0.0 mm 0.00 in0.0 mm 0.00 in0.0 mm
12:05 PM 88.5°F31.4°C 60.5°F15.8°C 39% 5.6 mph N9.0 kmh N 12.1 mph19.5 kmh 29.96 in1014.6 mb 0.00 in0.0 mm 0.00 in0.0 mm 0.00 in0.0 mm
12:00 PM 88.3°F31.3°C 61.0°F16.1°C 40% 5.7 mph N9.2 kmh N 14.5 mph23.3 kmh 29.96 in1014.6 mb 0.00 in0.0 mm 0.00 in0.0 mm 0.00 in0.0 mm
11:55 AM 87.6°F30.9°C 61.7°F16.5°C 42% 7.3 mph N11.7 kmh N 14.5 mph23.3 kmh 29.96 in1014.6 mb 0.00 in0.0 mm 0.00 in0.0 mm 0.00 in0.0 mm
11:50 AM 87.4°F30.8°C 60.9°F16.1°C 41% 7.5 mph NNE12.1 kmh NNE 14.5 mph23.3 kmh 29.96 in1014.6 mb 0.00 in0.0 mm 0.00 in0.0 mm 0.00 in0.0 mm
11:45 AM 87.6°F30.9°C 61.1°F16.2°C 41% 6.9 mph N11.1 kmh N 13.6 mph21.9 kmh 29.96 in1014.6 mb 0.00 in0.0 mm 0.00 in0.0 mm 0.00 in0.0 mm
11:40 AM 87.8°F31.0°C 62.6°F17.0°C 43% 6.8 mph N10.9 kmh N 18.3 mph29.5 kmh 29.96 in1014.6 mb 0.00 in0.0 mm 0.00 in0.0 mm 0.00 in0.0 mm
11:35 AM 87.4°F30.8°C 61.6°F16.4°C 42% 7.0 mph NE11.3 kmh NE 18.3 mph29.5 kmh 29.96 in1014.6 mb 0.00 in0.0 mm 0.00 in0.0 mm 0.00 in0.0 mm
11:30 AM 87.3°F30.7°C 60.7°F15.9°C 41% 7.6 mph N12.2 kmh N 14.5 mph23.3 kmh 29.96 in1014.6 mb 0.00 in0.0 mm 0.00 in0.0 mm 0.00 in0.0 mm
11:25 AM 87.1°F30.6°C 60.6°F15.9°C 41% 7.2 mph NNW11.6 kmh NNW 14.5 mph23.3 kmh 29.96 in1014.6 mb 0.00 in0.0 mm 0.00 in0.0 mm 0.00 in0.0 mm
11:20 AM 87.1°F30.6°C 60.6°F15.9°C 41% 6.8 mph N10.9 kmh N 15.2 mph24.5 kmh 29.96 in1014.6 mb 0.00 in0.0 mm 0.00 in0.0 mm 0.00 in0.0 mm
11:15 AM 87.1°F30.6°C 61.9°F16.6°C 43% 7.5 mph NNW12.1 kmh NNW 15.9 mph25.6 kmh 29.96 in1014.6 mb 0.00 in0.0 mm 0.00 in0.0 mm 0.00 in0.0 mm
11:10 AM 86.9°F30.5°C 61.1°F16.2°C 42% 6.4 mph NNW10.3 kmh NNW 15.9 mph25.6 kmh 29.96 in1014.6 mb 0.00 in0.0 mm 0.00 in0.0 mm 0.00 in0.0 mm
11:05 AM 86.4°F30.2°C 63.2°F17.3°C 46% 6.4 mph NNW10.3 kmh NNW 15.2 mph24.5 kmh 29.96 in1014.6 mb 0.00 in0.0 mm 0.00 in0.0 mm 0.00 in0.0 mm
11:00 AM 86.4°F30.2°C 62.6°F17.0°C 45% 7.8 mph NW12.6 kmh NW 15.9 mph25.6 kmh 29.95 in1014.2 mb 0.00 in0.0 mm 0.00 in0.0 mm 0.00 in0.0 mm
10:55 AM 86.4°F30.2°C 61.3°F16.3°C 43% 7.7 mph NW12.4 kmh NW 15.9 mph25.6 kmh 29.96 in1014.6 mb 0.00 in0.0 mm 0.00 in0.0 mm 0.00 in0.0 mm
10:50 AM 86.4°F30.2°C 61.9°F16.6°C 44% 7.6 mph N12.2 kmh N 15.9 mph25.6 kmh 29.96 in1014.6 mb 0.00 in0.0 mm 0.00 in0.0 mm 0.00 in0.0 mm
10:45 AM 85.8°F29.9°C 62.1°F16.7°C 45% 7.9 mph N12.7 kmh N 15.9 mph25.6 kmh 29.96 in1014.6 mb 0.00 in0.0 mm 0.00 in0.0 mm 0.00 in0.0 mm
10:40 AM 85.6°F29.8°C 61.9°F16.6°C 45% 7.2 mph N11.6 kmh N 15.9 mph25.6 kmh 29.96 in1014.6 mb 0.00 in0.0 mm 0.00 in0.0 mm 0.00 in0.0 mm
10:35 AM 86.0°F30.0°C 62.9°F17.2°C 46% 5.8 mph N9.3 kmh N 14.5 mph23.3 kmh 29.96 in1014.6 mb 0.00 in0.0 mm 0.00 in0.0 mm 0.00 in0.0 mm
10:30 AM 85.8°F29.9°C 63.3°F17.4°C 47% 6.5 mph NNW10.5 kmh NNW 14.5 mph23.3 kmh 29.95 in1014.2 mb 0.00 in0.0 mm 0.00 in0.0 mm 0.00 in0.0 mm
10:25 AM 85.8°F29.9°C 63.3°F17.4°C 47% 6.7 mph NNW10.8 kmh NNW 14.5 mph23.3 kmh 29.96 in1014.6 mb 0.00 in0.0 mm 0.00 in0.0 mm 0.00 in0.0 mm
10:20 AM 86.0°F30.0°C 63.5°F17.5°C 47% 6.9 mph N11.1 kmh N 15.2 mph24.5 kmh 29.96 in1014.6 mb 0.00 in0.0 mm 0.00 in0.0 mm 0.00 in0.0 mm
10:15 AM 85.3°F29.6°C 62.8°F17.1°C 47% 7.1 mph N11.4 kmh N 15.9 mph25.6 kmh 29.96 in1014.6 mb 0.00 in0.0 mm 0.00 in0.0 mm 0.00 in0.0 mm
10:10 AM 85.3°F29.6°C 62.8°F17.1°C 47% 6.8 mph NNW10.9 kmh NNW 15.9 mph25.6 kmh 29.95 in1014.2 mb 0.00 in0.0 mm 0.00 in0.0 mm 0.00 in0.0 mm
10:05 AM 85.6°F29.8°C 63.1°F17.3°C 47% 6.6 mph NW10.6 kmh NW 15.9 mph25.6 kmh 29.95 in1014.2 mb 0.00 in0.0 mm 0.00 in0.0 mm 0.00 in0.0 mm
10:00 AM 85.5°F29.7°C 63.0°F17.2°C 47% 6.1 mph NW9.8 kmh NW 17.4 mph28.0 kmh 29.95 in1014.2 mb 0.00 in0.0 mm 0.00 in0.0 mm 0.00 in0.0 mm
09:55 AM 85.1°F29.5°C 63.8°F17.7°C 49% 7.6 mph NNW12.2 kmh NNW 17.4 mph28.0 kmh 29.95 in1014.2 mb 0.00 in0.0 mm 0.00 in0.0 mm 0.00 in0.0 mm
09:50 AM 84.4°F29.1°C 63.2°F17.3°C 49% 8.4 mph NNW13.5 kmh NNW 15.9 mph25.6 kmh 29.95 in1014.2 mb 0.00 in0.0 mm 0.00 in0.0 mm 0.00 in0.0 mm
09:45 AM 84.7°F29.3°C 63.5°F17.5°C 49% 7.4 mph N11.9 kmh N 15.9 mph25.6 kmh 29.95 in1014.2 mb 0.00 in0.0 mm 0.00 in0.0 mm 0.00 in0.0 mm
09:40 AM 84.9°F29.4°C 63.7°F17.6°C 49% 7.3 mph N11.7 kmh N 15.9 mph25.6 kmh 29.95 in1014.2 mb 0.00 in0.0 mm 0.00 in0.0 mm 0.00 in0.0 mm
09:35 AM 84.4°F29.1°C 63.8°F17.7°C 50% 7.3 mph N11.7 kmh N 19.0 mph30.6 kmh 29.95 in1014.2 mb 0.00 in0.0 mm 0.00 in0.0 mm 0.00 in0.0 mm
09:30 AM 84.4°F29.1°C 63.8°F17.7°C 50% 7.1 mph N11.4 kmh N 19.0 mph30.6 kmh 29.95 in1014.2 mb 0.00 in0.0 mm 0.00 in0.0 mm 0.00 in0.0 mm
09:25 AM 84.2°F29.0°C 64.2°F17.9°C 51% 6.8 mph N10.9 kmh N 15.9 mph25.6 kmh 29.95 in1014.2 mb 0.00 in0.0 mm 0.00 in0.0 mm 0.00 in0.0 mm
09:20 AM 84.4°F29.1°C 64.3°F17.9°C 51% 5.6 mph N9.0 kmh N 15.9 mph25.6 kmh 29.96 in1014.6 mb 0.00 in0.0 mm 0.00 in0.0 mm 0.00 in0.0 mm
09:15 AM 84.6°F29.2°C 65.1°F18.4°C 52% 4.6 mph N7.4 kmh N 12.1 mph19.5 kmh 29.96 in1014.6 mb 0.00 in0.0 mm 0.00 in0.0 mm 0.00 in0.0 mm
09:10 AM 83.8°F28.8°C 65.5°F18.6°C 54% 4.8 mph N7.7 kmh N 12.1 mph19.5 kmh 29.96 in1014.6 mb 0.00 in0.0 mm 0.00 in0.0 mm 0.00 in0.0 mm
09:05 AM 83.1°F28.4°C 64.3°F17.9°C 53% 6.1 mph N9.8 kmh N 14.5 mph23.3 kmh 29.95 in1014.2 mb 0.00 in0.0 mm 0.00 in0.0 mm 0.00 in0.0 mm
09:00 AM 83.1°F28.4°C 64.3°F17.9°C 53% 6.2 mph N10.0 kmh N 15.2 mph24.5 kmh 29.95 in1014.2 mb 0.00 in0.0 mm 0.00 in0.0 mm 0.00 in0.0 mm
08:55 AM 82.4°F28.0°C 65.7°F18.7°C 57% 6.4 mph N10.3 kmh N 15.9 mph25.6 kmh 29.96 in1014.6 mb 0.00 in0.0 mm 0.00 in0.0 mm 0.00 in0.0 mm
08:50 AM 82.0°F27.8°C 64.8°F18.2°C 56% 7.8 mph N12.6 kmh N 15.9 mph25.6 kmh 29.95 in1014.2 mb 0.00 in0.0 mm 0.00 in0.0 mm 0.00 in0.0 mm
08:45 AM 82.2°F27.9°C 64.5°F18.1°C 55% 8.3 mph NNW13.4 kmh NNW 15.9 mph25.6 kmh 29.95 in1014.2 mb 0.00 in0.0 mm 0.00 in0.0 mm 0.00 in0.0 mm
08:40 AM 82.0°F27.8°C 64.8°F18.2°C 56% 8.2 mph NW13.2 kmh NW 15.2 mph24.5 kmh 29.95 in1014.2 mb 0.00 in0.0 mm 0.00 in0.0 mm 0.00 in0.0 mm
08:35 AM 82.2°F27.9°C 65.0°F18.3°C 56% 6.5 mph NNW10.5 kmh NNW 15.2 mph24.5 kmh 29.95 in1014.2 mb 0.00 in0.0 mm 0.00 in0.0 mm 0.00 in0.0 mm
08:30 AM 82.0°F27.8°C 65.4°F18.6°C 57% 6.0 mph NE9.7 kmh NE 14.5 mph23.3 kmh 29.94 in1013.9 mb 0.00 in0.0 mm 0.00 in0.0 mm 0.00 in0.0 mm
08:25 AM 81.5°F27.5°C 64.8°F18.2°C 57% 7.0 mph NE11.3 kmh NE 14.5 mph23.3 kmh 29.94 in1013.9 mb 0.00 in0.0 mm 0.00 in0.0 mm 0.00 in0.0 mm
08:20 AM 81.3°F27.4°C 65.2°F18.4°C 58% 7.2 mph N11.6 kmh N 19.0 mph30.6 kmh 29.94 in1013.9 mb 0.00 in0.0 mm 0.00 in0.0 mm 0.00 in0.0 mm
08:15 AM 81.1°F27.3°C 65.0°F18.3°C 58% 7.4 mph N11.9 kmh N 19.0 mph30.6 kmh 29.94 in1013.9 mb 0.00 in0.0 mm 0.00 in0.0 mm 0.00 in0.0 mm
08:10 AM 81.0°F27.2°C 65.3°F18.5°C 59% 8.2 mph N13.2 kmh N 15.2 mph24.5 kmh 29.94 in1013.9 mb 0.00 in0.0 mm 0.00 in0.0 mm 0.00 in0.0 mm
08:05 AM 80.6°F27.0°C 65.0°F18.3°C 59% 8.6 mph NNW13.8 kmh NNW 17.4 mph28.0 kmh 29.94 in1013.9 mb 0.00 in0.0 mm 0.00 in0.0 mm 0.00 in0.0 mm
08:00 AM 80.6°F27.0°C 65.0°F18.3°C 59% 8.4 mph NW13.5 kmh NW 17.4 mph28.0 kmh 29.94 in1013.9 mb 0.00 in0.0 mm 0.00 in0.0 mm 0.00 in0.0 mm
07:55 AM 80.4°F26.9°C 64.8°F18.2°C 59% 8.2 mph NW13.2 kmh NW 15.9 mph25.6 kmh 29.94 in1013.9 mb 0.00 in0.0 mm 0.00 in0.0 mm 0.00 in0.0 mm
07:50 AM 80.2°F26.8°C 66.1°F18.9°C 62% 7.9 mph N12.7 kmh N 15.2 mph24.5 kmh 29.94 in1013.9 mb 0.00 in0.0 mm 0.00 in0.0 mm 0.00 in0.0 mm
07:45 AM 79.9°F26.6°C 66.2°F19.0°C 63% 8.4 mph NNW13.5 kmh NNW 15.9 mph25.6 kmh 29.94 in1013.9 mb 0.00 in0.0 mm 0.00 in0.0 mm 0.00 in0.0 mm
07:40 AM 79.7°F26.5°C 66.0°F18.9°C 63% 8.8 mph NW14.2 kmh NW 15.9 mph25.6 kmh 29.94 in1013.9 mb 0.00 in0.0 mm 0.00 in0.0 mm 0.00 in0.0 mm
07:35 AM 79.7°F26.5°C 66.5°F19.2°C 64% 8.5 mph NW13.7 kmh NW 15.9 mph25.6 kmh 29.94 in1013.9 mb 0.00 in0.0 mm 0.00 in0.0 mm 0.00 in0.0 mm
07:30 AM 79.7°F26.5°C 66.9°F19.4°C 65% 6.9 mph NW11.1 kmh NW 15.2 mph24.5 kmh 29.94 in1013.9 mb 0.00 in0.0 mm 0.00 in0.0 mm 0.00 in0.0 mm
07:25 AM 79.7°F26.5°C 67.4°F19.7°C 66% 5.6 mph NNW9.0 kmh NNW 14.5 mph23.3 kmh 29.95 in1014.2 mb 0.00 in0.0 mm 0.00 in0.0 mm 0.00 in0.0 mm
07:20 AM 79.7°F26.5°C 66.9°F19.4°C 65% 5.4 mph NNW8.7 kmh NNW 12.1 mph19.5 kmh 29.95 in1014.2 mb 0.00 in0.0 mm 0.00 in0.0 mm 0.00 in0.0 mm
07:15 AM 79.5°F26.4°C 66.8°F19.3°C 65% 5.1 mph NW8.2 kmh NW 12.1 mph19.5 kmh 29.95 in1014.2 mb 0.00 in0.0 mm 0.00 in0.0 mm 0.00 in0.0 mm
07:10 AM 79.5°F26.4°C 66.8°F19.3°C 65% 4.4 mph NNW7.1 kmh NNW 12.1 mph19.5 kmh 29.95 in1014.2 mb 0.00 in0.0 mm 0.00 in0.0 mm 0.00 in0.0 mm
07:05 AM 79.3°F26.3°C 67.5°F19.7°C 67% 3.7 mph NNW6.0 kmh NNW 9.8 mph15.8 kmh 29.94 in1013.9 mb 0.00 in0.0 mm 0.00 in0.0 mm 0.00 in0.0 mm
07:00 AM 79.2°F26.2°C 67.3°F19.6°C 67% 3.0 mph NW4.8 kmh NW 9.2 mph14.8 kmh 29.94 in1013.9 mb 0.00 in0.0 mm 0.00 in0.0 mm 0.00 in0.0 mm
06:55 AM 78.8°F26.0°C 67.0°F19.4°C 67% 2.4 mph NW3.9 kmh NW 6.9 mph11.1 kmh 29.94 in1013.9 mb 0.00 in0.0 mm 0.00 in0.0 mm 0.00 in0.0 mm
06:50 AM 78.4°F25.8°C 67.0°F19.4°C 68% 2.7 mph NW4.3 kmh NW 6.9 mph11.1 kmh 29.95 in1014.2 mb 0.00 in0.0 mm 0.00 in0.0 mm 0.00 in0.0 mm
06:45 AM 78.3°F25.7°C 66.9°F19.4°C 68% 2.3 mph NW3.7 kmh NW 6.9 mph11.1 kmh 29.95 in1014.2 mb 0.00 in0.0 mm 0.00 in0.0 mm 0.00 in0.0 mm
06:40 AM 77.9°F25.5°C 67.0°F19.4°C 69% 1.6 mph NW2.6 kmh NW 4.5 mph7.2 kmh 29.95 in1014.2 mb 0.00 in0.0 mm 0.00 in0.0 mm 0.00 in0.0 mm
06:35 AM 77.4°F25.2°C 67.3°F19.6°C 71% 1.2 mph NW1.9 kmh NW 4.5 mph7.2 kmh 29.95 in1014.2 mb 0.00 in0.0 mm 0.00 in0.0 mm 0.00 in0.0 mm
06:30 AM 76.8°F24.9°C 66.7°F19.3°C 71% 1.1 mph WSW1.8 kmh WSW 4.5 mph7.2 kmh 29.95 in1014.2 mb 0.00 in0.0 mm 0.00 in0.0 mm 0.00 in0.0 mm
06:25 AM 75.7°F24.3°C 66.5°F19.2°C 73% 1.2 mph SW1.9 kmh SW 4.5 mph7.2 kmh 29.94 in1013.9 mb 0.00 in0.0 mm 0.00 in0.0 mm 0.00 in0.0 mm
06:20 AM 74.8°F23.8°C 66.4°F19.1°C 75% 0.9 mph SW1.4 kmh SW 4.5 mph7.2 kmh 29.94 in1013.9 mb 0.00 in0.0 mm 0.00 in0.0 mm 0.00 in0.0 mm
06:15 AM 74.3°F23.5°C 66.3°F19.1°C 76% 1.2 mph SW1.9 kmh SW 4.5 mph7.2 kmh 29.94 in1013.9 mb 0.00 in0.0 mm 0.00 in0.0 mm 0.00 in0.0 mm
06:10 AM 73.9°F23.3°C 65.9°F18.8°C 76% 2.0 mph SW3.2 kmh SW 6.0 mph9.7 kmh 29.94 in1013.9 mb 0.00 in0.0 mm 0.00 in0.0 mm 0.00 in0.0 mm
06:05 AM 73.8°F23.2°C 65.8°F18.8°C 76% 2.3 mph SW3.7 kmh SW 6.0 mph9.7 kmh 29.94 in1013.9 mb 0.00 in0.0 mm 0.00 in0.0 mm 0.00 in0.0 mm
06:00 AM 73.8°F23.2°C 65.8°F18.8°C 76% 2.3 mph SW3.7 kmh SW 4.5 mph7.2 kmh 29.94 in1013.9 mb 0.00 in0.0 mm 0.00 in0.0 mm 0.00 in0.0 mm
05:55 AM 73.4°F23.0°C 65.4°F18.6°C 76% 2.1 mph SW3.4 kmh SW 5.4 mph8.7 kmh 29.94 in1013.9 mb 0.00 in0.0 mm 0.00 in0.0 mm 0.00 in0.0 mm
05:50 AM 73.6°F23.1°C 65.6°F18.7°C 76% 1.8 mph SW2.9 kmh SW 5.4 mph8.7 kmh 29.94 in1013.9 mb 0.00 in0.0 mm 0.00 in0.0 mm 0.00 in0.0 mm
05:45 AM 73.8°F23.2°C 65.4°F18.6°C 75% 1.6 mph SW2.6 kmh SW 4.5 mph7.2 kmh 29.94 in1013.9 mb 0.00 in0.0 mm 0.00 in0.0 mm 0.00 in0.0 mm
05:40 AM 74.5°F23.6°C 66.1°F18.9°C 75% 1.4 mph WSW2.3 kmh WSW 6.0 mph9.7 kmh 29.94 in1013.9 mb 0.00 in0.0 mm 0.00 in0.0 mm 0.00 in0.0 mm
05:35 AM 74.5°F23.6°C 66.1°F18.9°C 75% 1.9 mph W3.1 kmh W 6.0 mph9.7 kmh 29.94 in1013.9 mb 0.00 in0.0 mm 0.00 in0.0 mm 0.00 in0.0 mm
05:30 AM 74.5°F23.6°C 66.1°F18.9°C 75% 1.9 mph W3.1 kmh W 6.0 mph9.7 kmh 29.94 in1013.9 mb 0.00 in0.0 mm 0.00 in0.0 mm 0.00 in0.0 mm
05:25 AM 74.3°F23.5°C 65.9°F18.8°C 75% 2.0 mph NW3.2 kmh NW 6.0 mph9.7 kmh 29.94 in1013.9 mb 0.00 in0.0 mm 0.00 in0.0 mm 0.00 in0.0 mm
05:20 AM 74.3°F23.5°C 65.9°F18.8°C 75% 2.2 mph NW3.5 kmh NW 7.6 mph12.2 kmh 29.93 in1013.5 mb 0.00 in0.0 mm 0.00 in0.0 mm 0.00 in0.0 mm
05:15 AM 74.3°F23.5°C 65.9°F18.8°C 75% 2.0 mph NW3.2 kmh NW 7.6 mph12.2 kmh 29.93 in1013.5 mb 0.00 in0.0 mm 0.00 in0.0 mm 0.00 in0.0 mm
05:10 AM 74.3°F23.5°C 65.5°F18.6°C 74% 2.1 mph WNW3.4 kmh WNW 6.0 mph9.7 kmh 29.93 in1013.5 mb 0.00 in0.0 mm 0.00 in0.0 mm 0.00 in0.0 mm
05:05 AM 74.5°F23.6°C 65.7°F18.7°C 74% 2.2 mph NW3.5 kmh NW 6.0 mph9.7 kmh 29.93 in1013.5 mb 0.00 in0.0 mm 0.00 in0.0 mm 0.00 in0.0 mm
05:00 AM 74.7°F23.7°C 65.5°F18.6°C 73% 2.3 mph NW3.7 kmh NW 6.9 mph11.1 kmh 29.93 in1013.5 mb 0.00 in0.0 mm 0.00 in0.0 mm 0.00 in0.0 mm
04:55 AM 74.7°F23.7°C 65.1°F18.4°C 72% 2.3 mph WNW3.7 kmh WNW 6.9 mph11.1 kmh 29.93 in1013.5 mb 0.00 in0.0 mm 0.00 in0.0 mm 0.00 in0.0 mm
04:50 AM 74.7°F23.7°C 64.7°F18.2°C 71% 2.0 mph W3.2 kmh W 6.9 mph11.1 kmh 29.93 in1013.5 mb 0.00 in0.0 mm 0.00 in0.0 mm 0.00 in0.0 mm
04:45 AM 74.7°F23.7°C 64.7°F18.2°C 71% 2.0 mph WNW3.2 kmh WNW 5.4 mph8.7 kmh 29.93 in1013.5 mb 0.00 in0.0 mm 0.00 in0.0 mm 0.00 in0.0 mm
04:40 AM 74.8°F23.8°C 64.8°F18.2°C 71% 2.0 mph W3.2 kmh W 5.4 mph8.7 kmh 29.93 in1013.5 mb 0.00 in0.0 mm 0.00 in0.0 mm 0.00 in0.0 mm
04:35 AM 74.8°F23.8°C 64.8°F18.2°C 71% 1.7 mph WNW2.7 kmh WNW 5.4 mph8.7 kmh 29.93 in1013.5 mb 0.00 in0.0 mm 0.00 in0.0 mm 0.00 in0.0 mm
04:30 AM 74.5°F23.6°C 64.5°F18.1°C 71% 1.2 mph WNW1.9 kmh WNW 5.4 mph8.7 kmh 29.93 in1013.5 mb 0.00 in0.0 mm 0.00 in0.0 mm 0.00 in0.0 mm
04:25 AM 74.7°F23.7°C 64.7°F18.2°C 71% 1.3 mph WSW2.1 kmh WSW 3.8 mph6.1 kmh 29.93 in1013.5 mb 0.00 in0.0 mm 0.00 in0.0 mm 0.00 in0.0 mm
04:20 AM 74.7°F23.7°C 64.3°F17.9°C 70% 1.4 mph SW2.3 kmh SW 3.1 mph5.0 kmh 29.93 in1013.5 mb 0.00 in0.0 mm 0.00 in0.0 mm 0.00 in0.0 mm
04:15 AM 74.8°F23.8°C 64.8°F18.2°C 71% 0.8 mph SW1.3 kmh SW 3.1 mph5.0 kmh 29.93 in1013.5 mb 0.00 in0.0 mm 0.00 in0.0 mm 0.00 in0.0 mm
04:10 AM 74.8°F23.8°C 64.8°F18.2°C 71% 0.3 mph W0.5 kmh W 3.1 mph5.0 kmh 29.93 in1013.5 mb 0.00 in0.0 mm 0.00 in0.0 mm 0.00 in0.0 mm
04:05 AM 74.8°F23.8°C 64.8°F18.2°C 71% 0.1 mph NW0.2 kmh NW 1.6 mph2.6 kmh 29.93 in1013.5 mb 0.00 in0.0 mm 0.00 in0.0 mm 0.00 in0.0 mm
04:00 AM 74.8°F23.8°C 64.8°F18.2°C 71% 0.4 mph NW0.6 kmh NW 3.1 mph5.0 kmh 29.93 in1013.5 mb 0.00 in0.0 mm 0.00 in0.0 mm 0.00 in0.0 mm
03:55 AM 75.0°F23.9°C 64.6°F18.1°C 70% 1.0 mph NW1.6 kmh NW 4.5 mph7.2 kmh 29.93 in1013.5 mb 0.00 in0.0 mm 0.00 in0.0 mm 0.00 in0.0 mm
03:50 AM 75.2°F24.0°C 64.8°F18.2°C 70% 1.3 mph NW2.1 kmh NW 4.5 mph7.2 kmh 29.93 in1013.5 mb 0.00 in0.0 mm 0.00 in0.0 mm 0.00 in0.0 mm
03:45 AM 75.2°F24.0°C 64.4°F18.0°C 69% 1.8 mph NW2.9 kmh NW 7.6 mph12.2 kmh 29.93 in1013.5 mb 0.00 in0.0 mm 0.00 in0.0 mm 0.00 in0.0 mm
03:40 AM 75.6°F24.2°C 64.7°F18.2°C 69% 2.7 mph NW4.3 kmh NW 7.6 mph12.2 kmh 29.93 in1013.5 mb 0.00 in0.0 mm 0.00 in0.0 mm 0.00 in0.0 mm
03:35 AM 75.7°F24.3°C 64.9°F18.3°C 69% 2.9 mph NNW4.7 kmh NNW 7.6 mph12.2 kmh 29.93 in1013.5 mb 0.00 in0.0 mm 0.00 in0.0 mm 0.00 in0.0 mm
03:30 AM 75.6°F24.2°C 64.3°F17.9°C 68% 2.7 mph NW4.3 kmh NW 6.9 mph11.1 kmh 29.93 in1013.5 mb 0.00 in0.0 mm 0.00 in0.0 mm 0.00 in0.0 mm
03:25 AM 75.7°F24.3°C 64.5°F18.1°C 68% 2.8 mph NNW4.5 kmh NNW 6.9 mph11.1 kmh 29.93 in1013.5 mb 0.00 in0.0 mm 0.00 in0.0 mm 0.00 in0.0 mm
03:20 AM 75.7°F24.3°C 64.5°F18.1°C 68% 2.9 mph N4.7 kmh N 6.9 mph11.1 kmh 29.93 in1013.5 mb 0.00 in0.0 mm 0.00 in0.0 mm 0.00 in0.0 mm
03:15 AM 75.9°F24.4°C 64.6°F18.1°C 68% 2.8 mph N4.5 kmh N 6.9 mph11.1 kmh 29.92 in1013.2 mb 0.00 in0.0 mm 0.00 in0.0 mm 0.00 in0.0 mm
03:10 AM 76.1°F24.5°C 64.4°F18.0°C 67% 2.9 mph N4.7 kmh N 6.9 mph11.1 kmh 29.92 in1013.2 mb 0.00 in0.0 mm 0.00 in0.0 mm 0.00 in0.0 mm
03:05 AM 76.3°F24.6°C 64.6°F18.1°C 67% 3.5 mph N5.6 kmh N 9.8 mph15.8 kmh 29.93 in1013.5 mb 0.00 in0.0 mm 0.00 in0.0 mm 0.00 in0.0 mm
03:00 AM 76.3°F24.6°C 64.6°F18.1°C 67% 3.6 mph N5.8 kmh N 9.8 mph15.8 kmh 29.92 in1013.2 mb 0.00 in0.0 mm 0.00 in0.0 mm 0.00 in0.0 mm
02:55 AM 76.3°F24.6°C 64.1°F17.8°C 66% 4.2 mph N6.8 kmh N 9.8 mph15.8 kmh 29.92 in1013.2 mb 0.00 in0.0 mm 0.00 in0.0 mm 0.00 in0.0 mm
02:50 AM 76.5°F24.7°C 64.3°F17.9°C 66% 5.2 mph NNW8.4 kmh NNW 11.4 mph18.3 kmh 29.92 in1013.2 mb 0.00 in0.0 mm 0.00 in0.0 mm 0.00 in0.0 mm
02:45 AM 76.5°F24.7°C 64.3°F17.9°C 66% 5.6 mph NNW9.0 kmh NNW 12.1 mph19.5 kmh 29.92 in1013.2 mb 0.00 in0.0 mm 0.00 in0.0 mm 0.00 in0.0 mm
02:40 AM 76.5°F24.7°C 63.9°F17.7°C 65% 6.2 mph NNW10.0 kmh NNW 12.1 mph19.5 kmh 29.92 in1013.2 mb 0.00 in0.0 mm 0.00 in0.0 mm 0.00 in0.0 mm
02:35 AM 76.6°F24.8°C 64.0°F17.8°C 65% 6.2 mph NNW10.0 kmh NNW 11.4 mph18.3 kmh 29.93 in1013.5 mb 0.00 in0.0 mm 0.00 in0.0 mm 0.00 in0.0 mm
02:30 AM 76.6°F24.8°C 64.0°F17.8°C 65% 5.8 mph NNW9.3 kmh NNW 11.4 mph18.3 kmh 29.93 in1013.5 mb 0.00 in0.0 mm 0.00 in0.0 mm 0.00 in0.0 mm
02:25 AM 76.6°F24.8°C 63.6°F17.6°C 64% 5.6 mph NNW9.0 kmh NNW 12.1 mph19.5 kmh 29.93 in1013.5 mb 0.00 in0.0 mm 0.00 in0.0 mm 0.00 in0.0 mm
02:20 AM 76.6°F24.8°C 63.6°F17.6°C 64% 5.6 mph NNW9.0 kmh NNW 12.1 mph19.5 kmh 29.93 in1013.5 mb 0.00 in0.0 mm 0.00 in0.0 mm 0.00 in0.0 mm
02:15 AM 76.6°F24.8°C 63.6°F17.6°C 64% 5.5 mph NNW8.9 kmh NNW 9.8 mph15.8 kmh 29.93 in1013.5 mb 0.00 in0.0 mm 0.00 in0.0 mm 0.00 in0.0 mm
02:10 AM 76.6°F24.8°C 63.6°F17.6°C 64% 5.8 mph NW9.3 kmh NW 11.4 mph18.3 kmh 29.93 in1013.5 mb 0.00 in0.0 mm 0.00 in0.0 mm 0.00 in0.0 mm
02:05 AM 76.8°F24.9°C 63.3°F17.4°C 63% 6.3 mph NW10.1 kmh NW 11.4 mph18.3 kmh 29.93 in1013.5 mb 0.00 in0.0 mm 0.00 in0.0 mm 0.00 in0.0 mm
02:00 AM 76.8°F24.9°C 63.3°F17.4°C 63% 6.4 mph NNW10.3 kmh NNW 12.1 mph19.5 kmh 29.93 in1013.5 mb 0.00 in0.0 mm 0.00 in0.0 mm 0.00 in0.0 mm
01:55 AM 76.8°F24.9°C 63.3°F17.4°C 63% 6.0 mph NNW9.7 kmh NNW 12.1 mph19.5 kmh 29.93 in1013.5 mb 0.00 in0.0 mm 0.00 in0.0 mm 0.00 in0.0 mm
01:50 AM 77.0°F25.0°C 63.5°F17.5°C 63% 6.1 mph NNW9.8 kmh NNW 12.1 mph19.5 kmh 29.93 in1013.5 mb 0.00 in0.0 mm 0.00 in0.0 mm 0.00 in0.0 mm
01:45 AM 77.0°F25.0°C 63.0°F17.2°C 62% 6.1 mph NNW9.8 kmh NNW 11.4 mph18.3 kmh 29.93 in1013.5 mb 0.00 in0.0 mm 0.00 in0.0 mm 0.00 in0.0 mm
01:40 AM 77.0°F25.0°C 63.0°F17.2°C 62% 6.0 mph NNW9.7 kmh NNW 11.4 mph18.3 kmh 29.93 in1013.5 mb 0.00 in0.0 mm 0.00 in0.0 mm 0.00 in0.0 mm
01:35 AM 77.2°F25.1°C 63.2°F17.3°C 62% 5.9 mph NNW9.5 kmh NNW 13.6 mph21.9 kmh 29.93 in1013.5 mb 0.00 in0.0 mm 0.00 in0.0 mm 0.00 in0.0 mm
01:30 AM 77.2°F25.1°C 63.2°F17.3°C 62% 5.5 mph NW8.9 kmh NW 13.6 mph21.9 kmh 29.93 in1013.5 mb 0.00 in0.0 mm 0.00 in0.0 mm 0.00 in0.0 mm
01:25 AM 77.2°F25.1°C 63.2°F17.3°C 62% 5.5 mph NW8.9 kmh NW 11.4 mph18.3 kmh 29.93 in1013.5 mb 0.00 in0.0 mm 0.00 in0.0 mm 0.00 in0.0 mm
01:20 AM 77.2°F25.1°C 63.2°F17.3°C 62% 5.2 mph NW8.4 kmh NW 9.8 mph15.8 kmh 29.93 in1013.5 mb 0.00 in0.0 mm 0.00 in0.0 mm 0.00 in0.0 mm
01:15 AM 77.2°F25.1°C 63.2°F17.3°C 62% 4.7 mph NNW7.6 kmh NNW 8.3 mph13.4 kmh 29.93 in1013.5 mb 0.00 in0.0 mm 0.00 in0.0 mm 0.00 in0.0 mm
01:10 AM 77.2°F25.1°C 63.2°F17.3°C 62% 4.5 mph NNW7.2 kmh NNW 8.3 mph13.4 kmh 29.93 in1013.5 mb 0.00 in0.0 mm 0.00 in0.0 mm 0.00 in0.0 mm
01:05 AM 77.0°F25.0°C 63.0°F17.2°C 62% 4.4 mph NW7.1 kmh NW 8.3 mph13.4 kmh 29.94 in1013.9 mb 0.00 in0.0 mm 0.00 in0.0 mm 0.00 in0.0 mm
01:00 AM 77.2°F25.1°C 63.2°F17.3°C 62% 4.3 mph NNW6.9 kmh NNW 8.3 mph13.4 kmh 29.94 in1013.9 mb 0.00 in0.0 mm 0.00 in0.0 mm 0.00 in0.0 mm
12:55 AM 77.2°F25.1°C 62.7°F17.1°C 61% 3.9 mph NNW6.3 kmh NNW 7.6 mph12.2 kmh 29.93 in1013.5 mb 0.00 in0.0 mm 0.00 in0.0 mm 0.00 in0.0 mm
12:50 AM 77.2°F25.1°C 62.7°F17.1°C 61% 3.6 mph NNW5.8 kmh NNW 6.9 mph11.1 kmh 29.94 in1013.9 mb 0.00 in0.0 mm 0.00 in0.0 mm 0.00 in0.0 mm
12:45 AM 77.4°F25.2°C 62.4°F16.9°C 60% 3.4 mph N5.5 kmh N 6.9 mph11.1 kmh 29.94 in1013.9 mb 0.00 in0.0 mm 0.00 in0.0 mm 0.00 in0.0 mm
12:40 AM 77.5°F25.3°C 62.1°F16.7°C 59% 3.3 mph N5.3 kmh N 7.6 mph12.2 kmh 29.94 in1013.9 mb 0.00 in0.0 mm 0.00 in0.0 mm 0.00 in0.0 mm
12:35 AM 77.7°F25.4°C 62.3°F16.8°C 59% 3.5 mph NNW5.6 kmh NNW 7.6 mph12.2 kmh 29.94 in1013.9 mb 0.00 in0.0 mm 0.00 in0.0 mm 0.00 in0.0 mm
12:30 AM 78.1°F25.6°C 62.1°F16.7°C 58% 4.3 mph NNW6.9 kmh NNW 9.2 mph14.8 kmh 29.95 in1014.2 mb 0.00 in0.0 mm 0.00 in0.0 mm 0.00 in0.0 mm
12:25 AM 78.3°F25.7°C 62.3°F16.8°C 58% 4.7 mph NNW7.6 kmh NNW 9.2 mph14.8 kmh 29.95 in1014.2 mb 0.00 in0.0 mm 0.00 in0.0 mm 0.00 in0.0 mm
12:20 AM 78.3°F25.7°C 62.3°F16.8°C 58% 5.1 mph N8.2 kmh N 11.4 mph18.3 kmh 29.95 in1014.2 mb 0.00 in0.0 mm 0.00 in0.0 mm 0.00 in0.0 mm
12:15 AM 78.3°F25.7°C 62.3°F16.8°C 58% 5.8 mph N9.3 kmh N 11.4 mph18.3 kmh 29.94 in1013.9 mb 0.00 in0.0 mm 0.00 in0.0 mm 0.00 in0.0 mm
12:10 AM 78.3°F25.7°C 62.3°F16.8°C 58% 5.9 mph N9.5 kmh N 11.4 mph18.3 kmh 29.94 in1013.9 mb 0.00 in0.0 mm 0.00 in0.0 mm 0.00 in0.0 mm
12:05 AM 78.6°F25.9°C 62.2°F16.8°C 57% 6.6 mph N10.6 kmh N 13.0 mph20.9 kmh 29.95 in1014.2 mb 0.00 in0.0 mm 0.00 in0.0 mm 0.00 in0.0 mm
12:00 AM 78.1°F25.6°C 61.6°F16.4°C 57% 5.6 mph NNE9.0 kmh NNE 13.0 mph20.9 kmh 29.95 in1014.2 mb 0.00 in0.0 mm 0.00 in0.0 mm 0.00 in0.0 mm